PWSweather.com
Personal Weather Stations
Station Observations
KB2SBX
Sugarloaf, Sugarloaf, PA 18249

SugarloafSugarloaf, PA 18249

Lat: 41.0126685, Lon: -76.1082041

Elevation: 1030

Station Type: WS-2080

http://sugarloafpaweather.webng.com/weather.shtml

High Low Average
Temperature 37.0°F2.8°C 22.1°F-5.5°C 28.3°F-2.1°C
Dew Point 15.8°F-9.0°C 8.4°F-13.1°C 12.3°F-10.9°C
Winds 4.8 mph 7.7 kmh 0.1 mph 0.2 kmh 2.0 mph W3.2 kmh W
Wind Gusts 16.8 mph27.0 kmh 2.2 mph3.5 kmh 7.0 mph11.3 kmh
Humidity 61% 38% 51%
Pressure 30.00 in1015.9 mb 29.91 in1012.9 mb -
Precipitation 0.02 in0.5 mm - -
Hour Temp Dew Point Humidity Winds Wind Gusts Pressure Precip Precip Rate Daily Precip Total
12:00 AM 23.4°F-4.8°C 8.8°F-12.9°C 53% 2.5 mph WNW4.0 kmh WNW 7.6 mph12.2 kmh 29.93 in1013.5 mb 0.00 in0.0 mm 0.00 in/hr0.0 mm/hr 0.00 in0.0 mm
12:15 AM 23.4°F-4.8°C 8.8°F-12.9°C 53% 2.2 mph NW3.5 kmh NW 6.0 mph9.7 kmh 29.92 in1013.2 mb 0.00 in0.0 mm 0.00 in/hr0.0 mm/hr 0.00 in0.0 mm
12:30 AM 23.4°F-4.8°C 8.4°F-13.1°C 52% 3.0 mph NW4.8 kmh NW 12.1 mph19.5 kmh 29.93 in1013.5 mb 0.00 in0.0 mm 0.00 in/hr0.0 mm/hr 0.00 in0.0 mm
12:45 AM 23.4°F-4.8°C 8.8°F-12.9°C 53% 1.3 mph W2.1 kmh W 3.8 mph6.1 kmh 29.92 in1013.2 mb 0.00 in0.0 mm 0.00 in/hr0.0 mm/hr 0.00 in0.0 mm
01:00 AM 23.4°F-4.8°C 8.4°F-13.1°C 52% 1.8 mph NW2.9 kmh NW 6.0 mph9.7 kmh 29.93 in1013.5 mb 0.00 in0.0 mm 0.00 in/hr0.0 mm/hr 0.00 in0.0 mm
01:15 AM 23.2°F-4.9°C 8.6°F-13.0°C 53% 1.5 mph W2.4 kmh W 8.3 mph13.4 kmh 29.93 in1013.5 mb 0.00 in0.0 mm 0.00 in/hr0.0 mm/hr 0.00 in0.0 mm
01:30 AM 23.4°F-4.8°C 8.4°F-13.1°C 52% 2.3 mph WNW3.7 kmh WNW 5.4 mph8.7 kmh 29.93 in1013.5 mb 0.00 in0.0 mm 0.00 in/hr0.0 mm/hr 0.00 in0.0 mm
01:45 AM 23.4°F-4.8°C 8.8°F-12.9°C 53% 2.4 mph W3.9 kmh W 7.6 mph12.2 kmh 29.93 in1013.5 mb 0.00 in0.0 mm 0.00 in/hr0.0 mm/hr 0.00 in0.0 mm
02:00 AM 23.4°F-4.8°C 8.8°F-12.9°C 53% 2.2 mph WNW3.5 kmh WNW 9.2 mph14.8 kmh 29.93 in1013.5 mb 0.00 in0.0 mm 0.00 in/hr0.0 mm/hr 0.00 in0.0 mm
02:15 AM 23.4°F-4.8°C 8.8°F-12.9°C 53% 2.2 mph NW3.5 kmh NW 7.6 mph12.2 kmh 29.93 in1013.5 mb 0.00 in0.0 mm 0.00 in/hr0.0 mm/hr 0.00 in0.0 mm
02:30 AM 23.4°F-4.8°C 9.2°F-12.7°C 54% 1.9 mph NW3.1 kmh NW 6.9 mph11.1 kmh 29.93 in1013.5 mb 0.00 in0.0 mm 0.00 in/hr0.0 mm/hr 0.00 in0.0 mm
02:45 AM 23.4°F-4.8°C 9.6°F-12.4°C 55% 1.2 mph WNW1.9 kmh WNW 4.5 mph7.2 kmh 29.93 in1013.5 mb 0.00 in0.0 mm 0.00 in/hr0.0 mm/hr 0.00 in0.0 mm
03:00 AM 23.4°F-4.8°C 10.4°F-12.0°C 57% 0.5 mph WNW0.8 kmh WNW 3.1 mph5.0 kmh 29.93 in1013.5 mb 0.00 in0.0 mm 0.00 in/hr0.0 mm/hr 0.00 in0.0 mm
03:15 AM 23.5°F-4.7°C 10.6°F-11.9°C 57% 1.4 mph W2.3 kmh W 3.8 mph6.1 kmh 29.93 in1013.5 mb 0.00 in0.0 mm 0.00 in/hr0.0 mm/hr 0.00 in0.0 mm
03:30 AM 23.7°F-4.6°C 11.2°F-11.6°C 58% 1.2 mph WSW1.9 kmh WSW 5.4 mph8.7 kmh 29.93 in1013.5 mb 0.00 in0.0 mm 0.00 in/hr0.0 mm/hr 0.00 in0.0 mm
03:45 AM 23.7°F-4.6°C 11.5°F-11.4°C 59% 0.7 mph NW1.1 kmh NW 3.1 mph5.0 kmh 29.94 in1013.9 mb 0.00 in0.0 mm 0.00 in/hr0.0 mm/hr 0.00 in0.0 mm
04:00 AM 23.7°F-4.6°C 11.5°F-11.4°C 59% 0.3 mph SW0.5 kmh SW 2.2 mph3.5 kmh 29.93 in1013.5 mb 0.00 in0.0 mm 0.00 in/hr0.0 mm/hr 0.00 in0.0 mm
04:15 AM 23.7°F-4.6°C 11.9°F-11.2°C 60% 0.2 mph WNW0.3 kmh WNW 2.2 mph3.5 kmh 29.94 in1013.9 mb 0.00 in0.0 mm 0.00 in/hr0.0 mm/hr 0.00 in0.0 mm
04:30 AM 23.7°F-4.6°C 11.9°F-11.2°C 60% 0.5 mph WSW0.8 kmh WSW 3.8 mph6.1 kmh 29.94 in1013.9 mb 0.00 in0.0 mm 0.00 in/hr0.0 mm/hr 0.00 in0.0 mm
04:45 AM 23.9°F-4.5°C 12.1°F-11.1°C 60% 0.9 mph W1.4 kmh W 3.8 mph6.1 kmh 29.94 in1013.9 mb 0.00 in0.0 mm 0.00 in/hr0.0 mm/hr 0.00 in0.0 mm
05:00 AM 23.9°F-4.5°C 12.1°F-11.1°C 60% 1.4 mph WNW2.3 kmh WNW 6.0 mph9.7 kmh 29.95 in1014.2 mb 0.00 in0.0 mm 0.00 in/hr0.0 mm/hr 0.00 in0.0 mm
05:15 AM 24.1°F-4.4°C 12.3°F-10.9°C 60% 1.2 mph WNW1.9 kmh WNW 4.5 mph7.2 kmh 29.94 in1013.9 mb 0.00 in0.0 mm 0.00 in/hr0.0 mm/hr 0.00 in0.0 mm
05:30 AM 24.1°F-4.4°C 12.3°F-10.9°C 60% 0.9 mph NW1.4 kmh NW 6.9 mph11.1 kmh 29.94 in1013.9 mb 0.00 in0.0 mm 0.00 in/hr0.0 mm/hr 0.00 in0.0 mm
05:45 AM 24.3°F-4.3°C 12.4°F-10.9°C 60% 1.0 mph WSW1.6 kmh WSW 6.0 mph9.7 kmh 29.95 in1014.2 mb 0.00 in0.0 mm 0.00 in/hr0.0 mm/hr 0.00 in0.0 mm
06:00 AM 24.3°F-4.3°C 12.4°F-10.9°C 60% 1.6 mph W2.6 kmh W 4.5 mph7.2 kmh 29.94 in1013.9 mb 0.00 in0.0 mm 0.00 in/hr0.0 mm/hr 0.00 in0.0 mm
06:15 AM 24.3°F-4.3°C 12.4°F-10.9°C 60% 1.2 mph W1.9 kmh W 4.5 mph7.2 kmh 29.95 in1014.2 mb 0.00 in0.0 mm 0.00 in/hr0.0 mm/hr 0.00 in0.0 mm
06:30 AM 24.1°F-4.4°C 12.3°F-10.9°C 60% 1.2 mph WSW1.9 kmh WSW 5.4 mph8.7 kmh 29.95 in1014.2 mb 0.00 in0.0 mm 0.00 in/hr0.0 mm/hr 0.00 in0.0 mm
06:45 AM 23.7°F-4.6°C 11.9°F-11.2°C 60% 1.1 mph SW1.8 kmh SW 4.5 mph7.2 kmh 29.96 in1014.6 mb 0.00 in0.0 mm 0.00 in/hr0.0 mm/hr 0.00 in0.0 mm
07:00 AM 23.4°F-4.8°C 11.6°F-11.3°C 60% 2.4 mph W3.9 kmh W 8.3 mph13.4 kmh 29.96 in1014.6 mb 0.00 in0.0 mm 0.00 in/hr0.0 mm/hr 0.00 in0.0 mm
07:15 AM 23.0°F-5.0°C 11.2°F-11.6°C 60% 1.4 mph WSW2.3 kmh WSW 6.0 mph9.7 kmh 29.97 in1014.9 mb 0.00 in0.0 mm 0.00 in/hr0.0 mm/hr 0.00 in0.0 mm
07:30 AM 22.3°F-5.4°C 10.9°F-11.7°C 61% 1.2 mph WSW1.9 kmh WSW 6.0 mph9.7 kmh 29.97 in1014.9 mb 0.00 in0.0 mm 0.00 in/hr0.0 mm/hr 0.00 in0.0 mm
07:45 AM 22.1°F-5.5°C 10.8°F-11.8°C 61% 1.8 mph WSW2.9 kmh WSW 6.0 mph9.7 kmh 29.97 in1014.9 mb 0.00 in0.0 mm 0.00 in/hr0.0 mm/hr 0.00 in0.0 mm
08:00 AM 22.3°F-5.4°C 10.9°F-11.7°C 61% 1.9 mph SW3.1 kmh SW 6.0 mph9.7 kmh 29.98 in1015.2 mb 0.00 in0.0 mm 0.00 in/hr0.0 mm/hr 0.00 in0.0 mm
08:15 AM 22.8°F-5.1°C 11.1°F-11.6°C 60% 2.1 mph SW3.4 kmh SW 7.6 mph12.2 kmh 29.98 in1015.2 mb 0.00 in0.0 mm 0.00 in/hr0.0 mm/hr 0.00 in0.0 mm
08:30 AM 23.7°F-4.6°C 11.2°F-11.6°C 58% 2.6 mph SW4.2 kmh SW 9.2 mph14.8 kmh 29.99 in1015.6 mb 0.00 in0.0 mm 0.00 in/hr0.0 mm/hr 0.00 in0.0 mm
08:45 AM 24.4°F-4.2°C 11.0°F-11.7°C 56% 2.1 mph WSW3.4 kmh WSW 9.2 mph14.8 kmh 29.99 in1015.6 mb 0.00 in0.0 mm 0.00 in/hr0.0 mm/hr 0.00 in0.0 mm
09:00 AM 25.0°F-3.9°C 11.1°F-11.6°C 55% 2.2 mph WSW3.5 kmh WSW 6.9 mph11.1 kmh 29.99 in1015.6 mb 0.00 in0.0 mm 0.00 in/hr0.0 mm/hr 0.00 in0.0 mm
09:15 AM 25.5°F-3.6°C 10.8°F-11.8°C 53% 3.9 mph NW6.3 kmh NW 12.1 mph19.5 kmh 30.00 in1015.9 mb 0.00 in0.0 mm 0.00 in/hr0.0 mm/hr 0.00 in0.0 mm
09:30 AM 25.3°F-3.7°C 10.6°F-11.9°C 53% 3.6 mph WSW5.8 kmh WSW 9.2 mph14.8 kmh 30.00 in1015.9 mb 0.00 in0.0 mm 0.00 in/hr0.0 mm/hr 0.00 in0.0 mm
09:45 AM 26.4°F-3.1°C 11.2°F-11.6°C 52% 3.9 mph SSW6.3 kmh SSW 10.7 mph17.2 kmh 30.00 in1015.9 mb 0.00 in0.0 mm 0.00 in/hr0.0 mm/hr 0.00 in0.0 mm
10:00 AM 27.3°F-2.6°C 11.6°F-11.3°C 51% 3.1 mph NW5.0 kmh NW 9.2 mph14.8 kmh 29.99 in1015.6 mb 0.00 in0.0 mm 0.00 in/hr0.0 mm/hr 0.00 in0.0 mm
10:15 AM 28.2°F-2.1°C 12.0°F-11.1°C 50% 3.0 mph WNW4.8 kmh WNW 9.8 mph15.8 kmh 29.99 in1015.6 mb 0.00 in0.0 mm 0.00 in/hr0.0 mm/hr 0.00 in0.0 mm
10:30 AM 28.9°F-1.7°C 14.4°F-9.8°C 54% 3.4 mph W5.5 kmh W 9.2 mph14.8 kmh 30.00 in1015.9 mb 0.00 in0.0 mm 0.00 in/hr0.0 mm/hr 0.00 in0.0 mm
10:45 AM 30.0°F-1.1°C 14.6°F-9.7°C 52% 3.3 mph WSW5.3 kmh WSW 9.8 mph15.8 kmh 29.99 in1015.6 mb 0.00 in0.0 mm 0.00 in/hr0.0 mm/hr 0.00 in0.0 mm
11:00 AM 30.0°F-1.1°C 14.6°F-9.7°C 52% 3.5 mph NW5.6 kmh NW 13.0 mph20.9 kmh 29.99 in1015.6 mb 0.00 in0.0 mm 0.00 in/hr0.0 mm/hr 0.00 in0.0 mm
11:15 AM 30.4°F-0.9°C 14.9°F-9.5°C 52% 3.1 mph NW5.0 kmh NW 7.6 mph12.2 kmh 29.99 in1015.6 mb 0.00 in0.0 mm 0.00 in/hr0.0 mm/hr 0.00 in0.0 mm
11:30 AM 31.3°F-0.4°C 15.3°F-9.3°C 51% 3.0 mph WSW4.8 kmh WSW 7.6 mph12.2 kmh 29.98 in1015.2 mb 0.01 in0.3 mm 0.04 in/hr1.0 mm/hr 0.01 in0.3 mm
11:45 AM 30.9°F-0.6°C 14.5°F-9.7°C 50% 4.0 mph NW6.4 kmh NW 11.4 mph18.3 kmh 29.98 in1015.2 mb 0.01 in0.3 mm 0.00 in/hr0.0 mm/hr 0.01 in0.3 mm
12:00 PM 30.9°F-0.6°C 14.5°F-9.7°C 50% 3.6 mph NW5.8 kmh NW 9.2 mph14.8 kmh 29.98 in1015.2 mb 0.01 in0.3 mm 0.00 in/hr0.0 mm/hr 0.01 in0.3 mm
12:15 PM 32.4°F0.2°C 15.8°F-9.0°C 50% 2.8 mph WSW4.5 kmh WSW 8.3 mph13.4 kmh 29.97 in1014.9 mb 0.02 in0.5 mm 0.04 in/hr1.0 mm/hr 0.02 in0.5 mm
12:30 PM 32.0°F0.0°C 14.1°F-9.9°C 47% 4.8 mph NW7.7 kmh NW 16.8 mph27.0 kmh 29.97 in1014.9 mb 0.01 in0.3 mm 0.00 in/hr0.0 mm/hr 0.02 in0.5 mm
12:45 PM 32.2°F0.1°C 14.7°F-9.6°C 48% 4.4 mph WNW7.1 kmh WNW 9.8 mph15.8 kmh 29.96 in1014.6 mb 0.01 in0.3 mm 0.00 in/hr0.0 mm/hr 0.02 in0.5 mm
01:00 PM 33.1°F0.6°C 15.6°F-9.1°C 48% 3.1 mph NW5.0 kmh NW 8.3 mph13.4 kmh 29.96 in1014.6 mb 0.01 in0.3 mm 0.00 in/hr0.0 mm/hr 0.02 in0.5 mm
01:15 PM 34.2°F1.2°C 15.1°F-9.4°C 45% 3.0 mph WNW4.8 kmh WNW 7.6 mph12.2 kmh 29.95 in1014.2 mb 0.00 in0.0 mm 0.00 in/hr0.0 mm/hr 0.02 in0.5 mm
01:30 PM 34.5°F1.4°C 14.9°F-9.5°C 44% 3.0 mph W4.8 kmh W 7.6 mph12.2 kmh 29.94 in1013.9 mb 0.00 in0.0 mm 0.00 in/hr0.0 mm/hr 0.02 in0.5 mm
01:45 PM 34.7°F1.5°C 14.0°F-10.0°C 42% 4.0 mph W6.4 kmh W 9.8 mph15.8 kmh 29.94 in1013.9 mb 0.00 in0.0 mm 0.00 in/hr0.0 mm/hr 0.02 in0.5 mm
02:00 PM 35.4°F1.9°C 14.6°F-9.7°C 42% 3.5 mph S5.6 kmh S 9.2 mph14.8 kmh 29.94 in1013.9 mb 0.00 in0.0 mm 0.00 in/hr0.0 mm/hr 0.02 in0.5 mm
02:15 PM 36.0°F2.2°C 15.1°F-9.4°C 42% 3.4 mph W5.5 kmh W 10.7 mph17.2 kmh 29.94 in1013.9 mb 0.00 in0.0 mm 0.00 in/hr0.0 mm/hr 0.02 in0.5 mm
02:30 PM 36.3°F2.4°C 14.9°F-9.5°C 41% 3.6 mph W5.8 kmh W 10.7 mph17.2 kmh 29.94 in1013.9 mb 0.00 in0.0 mm 0.00 in/hr0.0 mm/hr 0.02 in0.5 mm
02:45 PM 36.3°F2.4°C 14.9°F-9.5°C 41% 3.3 mph W5.3 kmh W 12.1 mph19.5 kmh 29.93 in1013.5 mb 0.00 in0.0 mm 0.00 in/hr0.0 mm/hr 0.02 in0.5 mm
03:00 PM 36.9°F2.7°C 15.4°F-9.2°C 41% 3.0 mph WNW4.8 kmh WNW 9.2 mph14.8 kmh 29.94 in1013.9 mb 0.00 in0.0 mm 0.00 in/hr0.0 mm/hr 0.02 in0.5 mm
03:15 PM 37.0°F2.8°C 14.4°F-9.8°C 39% 2.8 mph WNW4.5 kmh WNW 8.3 mph13.4 kmh 29.93 in1013.5 mb 0.00 in0.0 mm 0.00 in/hr0.0 mm/hr 0.02 in0.5 mm
03:30 PM 36.7°F2.6°C 14.1°F-9.9°C 39% 3.2 mph W5.1 kmh W 9.2 mph14.8 kmh 29.92 in1013.2 mb 0.00 in0.0 mm 0.00 in/hr0.0 mm/hr 0.02 in0.5 mm
03:45 PM 36.9°F2.7°C 14.2°F-9.9°C 39% 3.2 mph N5.1 kmh N 9.2 mph14.8 kmh 29.91 in1012.9 mb 0.00 in0.0 mm 0.00 in/hr0.0 mm/hr 0.02 in0.5 mm
04:00 PM 36.7°F2.6°C 14.7°F-9.6°C 40% 2.8 mph NW4.5 kmh NW 6.9 mph11.1 kmh 29.92 in1013.2 mb 0.00 in0.0 mm 0.00 in/hr0.0 mm/hr 0.02 in0.5 mm
04:15 PM 36.5°F2.5°C 13.3°F-10.4°C 38% 3.8 mph NW6.1 kmh NW 13.6 mph21.9 kmh 29.92 in1013.2 mb 0.00 in0.0 mm 0.00 in/hr0.0 mm/hr 0.02 in0.5 mm
04:30 PM 36.3°F2.4°C 13.8°F-10.1°C 39% 2.5 mph NW4.0 kmh NW 6.9 mph11.1 kmh 29.91 in1012.9 mb 0.00 in0.0 mm 0.00 in/hr0.0 mm/hr 0.02 in0.5 mm
04:45 PM 35.8°F2.1°C 14.4°F-9.8°C 41% 2.0 mph WSW3.2 kmh WSW 6.0 mph9.7 kmh 29.92 in1013.2 mb 0.00 in0.0 mm 0.00 in/hr0.0 mm/hr 0.02 in0.5 mm
05:00 PM 35.6°F2.0°C 13.7°F-10.2°C 40% 1.6 mph W2.6 kmh W 5.4 mph8.7 kmh 29.92 in1013.2 mb 0.00 in0.0 mm 0.00 in/hr0.0 mm/hr 0.02 in0.5 mm
05:15 PM 35.2°F1.8°C 13.9°F-10.1°C 41% 0.4 mph SE0.6 kmh SE 3.8 mph6.1 kmh 29.93 in1013.5 mb 0.00 in0.0 mm 0.00 in/hr0.0 mm/hr 0.02 in0.5 mm
05:30 PM 34.7°F1.5°C 13.4°F-10.3°C 41% 1.1 mph NNW1.8 kmh NNW 3.1 mph5.0 kmh 29.93 in1013.5 mb 0.00 in0.0 mm 0.00 in/hr0.0 mm/hr 0.02 in0.5 mm
05:45 PM 34.2°F1.2°C 12.4°F-10.9°C 40% 1.0 mph N1.6 kmh N 6.0 mph9.7 kmh 29.93 in1013.5 mb 0.00 in0.0 mm 0.00 in/hr0.0 mm/hr 0.02 in0.5 mm
06:00 PM 33.8°F1.0°C 12.1°F-11.1°C 40% 0.8 mph N1.3 kmh N 3.1 mph5.0 kmh 29.93 in1013.5 mb 0.00 in0.0 mm 0.00 in/hr0.0 mm/hr 0.02 in0.5 mm
06:15 PM 33.3°F0.7°C 12.1°F-11.1°C 41% 0.4 mph NNE0.6 kmh NNE 2.2 mph3.5 kmh 29.93 in1013.5 mb 0.00 in0.0 mm 0.00 in/hr0.0 mm/hr 0.02 in0.5 mm
06:30 PM 32.2°F0.1°C 11.7°F-11.3°C 42% 0.1 mph NE0.2 kmh NE 3.1 mph5.0 kmh 29.93 in1013.5 mb 0.00 in0.0 mm 0.00 in/hr0.0 mm/hr 0.02 in0.5 mm
06:45 PM 31.6°F-0.2°C 11.7°F-11.3°C 43% Calm Calm 0.7 mph1.1 kmh 29.94 in1013.9 mb 0.00 in0.0 mm 0.00 in/hr0.0 mm/hr 0.02 in0.5 mm
07:00 PM 31.3°F-0.4°C 10.9°F-11.7°C 42% 0.3 mph S0.5 kmh S 2.2 mph3.5 kmh 29.95 in1014.2 mb 0.00 in0.0 mm 0.00 in/hr0.0 mm/hr 0.02 in0.5 mm
07:15 PM 31.1°F-0.5°C 10.7°F-11.8°C 42% 0.1 mph SW0.2 kmh SW 1.6 mph2.6 kmh 29.95 in1014.2 mb 0.00 in0.0 mm 0.00 in/hr0.0 mm/hr 0.02 in0.5 mm
07:30 PM 30.4°F-0.9°C 10.1°F-12.2°C 42% 0.3 mph NNE0.5 kmh NNE 3.1 mph5.0 kmh 29.95 in1014.2 mb 0.00 in0.0 mm 0.00 in/hr0.0 mm/hr 0.02 in0.5 mm
07:45 PM 30.9°F-0.6°C 10.6°F-11.9°C 42% 0.9 mph NW1.4 kmh NW 5.4 mph8.7 kmh 29.95 in1014.2 mb 0.00 in0.0 mm 0.00 in/hr0.0 mm/hr 0.02 in0.5 mm
08:00 PM 30.2°F-1.0°C 10.4°F-12.0°C 43% 0.2 mph SSE0.3 kmh SSE 1.6 mph2.6 kmh 29.95 in1014.2 mb 0.00 in0.0 mm 0.00 in/hr0.0 mm/hr 0.02 in0.5 mm
08:15 PM 29.5°F-1.4°C 11.3°F-11.5°C 46% 0.1 mph SSE0.2 kmh SSE 1.6 mph2.6 kmh 29.95 in1014.2 mb 0.00 in0.0 mm 0.00 in/hr0.0 mm/hr 0.02 in0.5 mm
08:30 PM 29.8°F-1.2°C 11.1°F-11.6°C 45% 0.3 mph SE0.5 kmh SE 2.2 mph3.5 kmh 29.96 in1014.6 mb 0.00 in0.0 mm 0.00 in/hr0.0 mm/hr 0.02 in0.5 mm
08:45 PM 29.8°F-1.2°C 11.1°F-11.6°C 45% 0.9 mph SE1.4 kmh SE 3.1 mph5.0 kmh 29.97 in1014.9 mb 0.00 in0.0 mm 0.00 in/hr0.0 mm/hr 0.02 in0.5 mm
09:00 PM 28.8°F-1.8°C 12.1°F-11.1°C 49% 0.2 mph N0.3 kmh N 1.6 mph2.6 kmh 29.97 in1014.9 mb 0.00 in0.0 mm 0.00 in/hr0.0 mm/hr 0.02 in0.5 mm
09:15 PM 28.9°F-1.7°C 11.3°F-11.5°C 47% 0.6 mph SE1.0 kmh SE 3.1 mph5.0 kmh 29.98 in1015.2 mb 0.00 in0.0 mm 0.00 in/hr0.0 mm/hr 0.02 in0.5 mm
09:30 PM 29.3°F-1.5°C 12.1°F-11.1°C 48% 0.6 mph ESE1.0 kmh ESE 3.8 mph6.1 kmh 29.97 in1014.9 mb 0.00 in0.0 mm 0.00 in/hr0.0 mm/hr 0.02 in0.5 mm
09:45 PM 28.9°F-1.7°C 11.3°F-11.5°C 47% 0.2 mph NE0.3 kmh NE 1.6 mph2.6 kmh 29.98 in1015.2 mb 0.00 in0.0 mm 0.00 in/hr0.0 mm/hr 0.02 in0.5 mm
10:00 PM 29.1°F-1.6°C 11.0°F-11.7°C 46% 0.1 mph S0.2 kmh S 1.6 mph2.6 kmh 29.97 in1014.9 mb 0.00 in0.0 mm 0.00 in/hr0.0 mm/hr 0.02 in0.5 mm
10:15 PM 28.8°F-1.8°C 11.1°F-11.6°C 47% Calm Calm 0.7 mph1.1 kmh 29.97 in1014.9 mb 0.00 in0.0 mm 0.00 in/hr0.0 mm/hr 0.02 in0.5 mm
10:30 PM 28.6°F-1.9°C 10.9°F-11.7°C 47% Calm Calm -- 29.98 in1015.2 mb 0.00 in0.0 mm 0.00 in/hr0.0 mm/hr 0.02 in0.5 mm
10:45 PM 28.4°F-2.0°C 11.7°F-11.3°C 49% Calm Calm -- 29.97 in1014.9 mb 0.00 in0.0 mm 0.00 in/hr0.0 mm/hr 0.02 in0.5 mm
11:00 PM 28.2°F-2.1°C 10.6°F-11.9°C 47% Calm Calm 1.6 mph2.6 kmh 29.98 in1015.2 mb 0.00 in0.0 mm 0.00 in/hr0.0 mm/hr 0.02 in0.5 mm
11:15 PM 27.7°F-2.4°C 10.1°F-12.2°C 47% Calm Calm 1.6 mph2.6 kmh 29.98 in1015.2 mb 0.00 in0.0 mm 0.00 in/hr0.0 mm/hr 0.02 in0.5 mm
11:30 PM 27.3°F-2.6°C 9.3°F-12.6°C 46% Calm Calm -- 29.99 in1015.6 mb 0.00 in0.0 mm 0.00 in/hr0.0 mm/hr 0.02 in0.5 mm
11:45 PM 27.7°F-2.4°C 9.6°F-12.4°C 46% Calm Calm 2.2 mph3.5 kmh 29.98 in1015.2 mb 0.00 in0.0 mm 0.00 in/hr0.0 mm/hr 0.02 in0.5 mm